CheckWX is a tool to help pilots better visualize weather data.  It is not intended as a substitute for an official pre-flight weather briefing.

03:17:51 UTC

VTUQ METAR
Nakhon Ratchasima Airport
Thailand
Current

18 mins ago

VTUQ 180300Z VRB04KT 9999 SCT025 31/26 Q1011 NOSIG
Observed
Sep-18 @ 03:00 UTC
Wind
  • Variable at 4 KTS
Visibility
10,000+ meters
Flight Rules
VFR
Cloud Levels
  • Scattered at 2,500' AGL
Temperature
31°C / 88°F
Dewpoint
26°C / 79°F
Heat Index
39°C / 103°F
Humidity
75%
Altimeter
29.85" Hg
Pressure
1010.92 hPa
Previous

1 hour ago

VTUQ 180200Z VRB03KT 8000 FEW025 30/27 Q1012 NOSIG
Observed
Sep-18 @ 02:00 UTC
Wind
  • Variable at 3 KTS
Visibility
8,000 meters
Flight Rules
MVFR
Cloud Levels
  • Few at 2,500' AGL
Temperature
30°C / 86°F
Dewpoint
27°C / 81°F
Heat Index
39°C / 102°F
Humidity
84%
Altimeter
29.88" Hg
Pressure
1011.92 hPa
Previous

2 hours ago

VTUQ 180100Z 35005KT 290V050 5000 BR FEW025 27/26 Q1011 NOSIG
Observed
Sep-18 @ 01:00 UTC
Wind
  • 350° at 5 KTS
Visibility
5,000 meters
Flight Rules
MVFR
Conditions
Mist
Cloud Levels
  • Few at 2,500' AGL
Temperature
27°C / 81°F
Dewpoint
26°C / 79°F
Heat Index
32°C / 89°F
Humidity
94%
Altimeter
29.85" Hg
Pressure
1010.92 hPa